sensor_id;sensor_type;location;lat;lon;timestamp;temperature;humidity
45785;DHT22;31489;51.404;5.474;2023-08-01T00:02:22;20.40;90.70
45785;DHT22;31489;51.404;5.474;2023-08-01T00:04:47;20.40;90.70
45785;DHT22;31489;51.404;5.474;2023-08-01T00:07:13;20.40;90.80
45785;DHT22;31489;51.404;5.474;2023-08-01T00:09:39;20.40;90.80
45785;DHT22;31489;51.404;5.474;2023-08-01T00:12:05;20.40;90.80
45785;DHT22;31489;51.404;5.474;2023-08-01T00:14:30;20.40;90.90
45785;DHT22;31489;51.404;5.474;2023-08-01T00:16:56;20.40;90.80
45785;DHT22;31489;51.404;5.474;2023-08-01T00:19:22;20.40;90.80
45785;DHT22;31489;51.404;5.474;2023-08-01T00:21:48;20.40;90.80
45785;DHT22;31489;51.404;5.474;2023-08-01T00:24:13;20.40;90.60
45785;DHT22;31489;51.404;5.474;2023-08-01T00:26:39;20.40;90.50
45785;DHT22;31489;51.404;5.474;2023-08-01T00:29:05;20.40;90.40
45785;DHT22;31489;51.404;5.474;2023-08-01T00:31:30;20.30;90.30
45785;DHT22;31489;51.404;5.474;2023-08-01T00:33:56;20.30;90.30
45785;DHT22;31489;51.404;5.474;2023-08-01T00:36:22;20.30;90.20
45785;DHT22;31489;51.404;5.474;2023-08-01T00:38:48;20.20;90.20
45785;DHT22;31489;51.404;5.474;2023-08-01T00:41:14;20.20;90.30
45785;DHT22;31489;51.404;5.474;2023-08-01T00:43:40;20.20;90.30
45785;DHT22;31489;51.404;5.474;2023-08-01T00:46:06;20.20;90.20
45785;DHT22;31489;51.404;5.474;2023-08-01T00:48:33;20.20;90.30
45785;DHT22;31489;51.404;5.474;2023-08-01T00:51:01;20.10;90.30
45785;DHT22;31489;51.404;5.474;2023-08-01T00:53:27;20.10;90.30
45785;DHT22;31489;51.404;5.474;2023-08-01T00:55:54;20.10;90.30
45785;DHT22;31489;51.404;5.474;2023-08-01T00:58:20;20.10;90.20
45785;DHT22;31489;51.404;5.474;2023-08-01T01:00:46;20.10;90.20
45785;DHT22;31489;51.404;5.474;2023-08-01T01:03:13;20.10;90.20
45785;DHT22;31489;51.404;5.474;2023-08-01T01:05:44;20.00;90.10
45785;DHT22;31489;51.404;5.474;2023-08-01T01:08:13;20.00;90.00
45785;DHT22;31489;51.404;5.474;2023-08-01T01:10:39;20.00;90.00
45785;DHT22;31489;51.404;5.474;2023-08-01T01:13:04;20.00;89.90
45785;DHT22;31489;51.404;5.474;2023-08-01T01:15:30;19.90;89.80
45785;DHT22;31489;51.404;5.474;2023-08-01T01:17:55;19.90;89.80
45785;DHT22;31489;51.404;5.474;2023-08-01T01:20:24;20.00;89.60
45785;DHT22;31489;51.404;5.474;2023-08-01T01:22:52;19.90;89.30
45785;DHT22;31489;51.404;5.474;2023-08-01T01:25:20;19.90;89.30
45785;DHT22;31489;51.404;5.474;2023-08-01T01:27:49;19.80;89.30
45785;DHT22;31489;51.404;5.474;2023-08-01T01:30:15;19.80;89.20
45785;DHT22;31489;51.404;5.474;2023-08-01T01:32:41;19.80;89.20
45785;DHT22;31489;51.404;5.474;2023-08-01T01:35:07;19.70;89.20
45785;DHT22;31489;51.404;5.474;2023-08-01T01:37:33;19.70;89.20
45785;DHT22;31489;51.404;5.474;2023-08-01T01:39:59;19.60;89.10
45785;DHT22;31489;51.404;5.474;2023-08-01T01:42:24;19.60;89.20
45785;DHT22;31489;51.404;5.474;2023-08-01T01:44:50;19.50;89.10
45785;DHT22;31489;51.404;5.474;2023-08-01T01:47:17;19.50;89.20
45785;DHT22;31489;51.404;5.474;2023-08-01T01:49:43;19.50;89.20
45785;DHT22;31489;51.404;5.474;2023-08-01T01:52:08;19.40;89.40
45785;DHT22;31489;51.404;5.474;2023-08-01T01:54:34;19.40;89.60
45785;DHT22;31489;51.404;5.474;2023-08-01T01:56:59;19.40;89.60
45785;DHT22;31489;51.404;5.474;2023-08-01T01:59:25;19.40;89.50
45785;DHT22;31489;51.404;5.474;2023-08-01T02:01:51;19.40;89.60
45785;DHT22;31489;51.404;5.474;2023-08-01T02:04:16;19.40;89.60
45785;DHT22;31489;51.404;5.474;2023-08-01T02:06:43;19.40;89.60
45785;DHT22;31489;51.404;5.474;2023-08-01T02:09:09;19.40;89.60
45785;DHT22;31489;51.404;5.474;2023-08-01T02:11:35;19.30;89.50
45785;DHT22;31489;51.404;5.474;2023-08-01T02:14:00;19.30;89.40
45785;DHT22;31489;51.404;5.474;2023-08-01T02:16:28;19.30;89.40
45785;DHT22;31489;51.404;5.474;2023-08-01T02:18:54;19.30;89.40
45785;DHT22;31489;51.404;5.474;2023-08-01T02:21:19;19.20;89.40
45785;DHT22;31489;51.404;5.474;2023-08-01T02:23:45;19.20;89.20
45785;DHT22;31489;51.404;5.474;2023-08-01T02:26:11;19.20;89.40
45785;DHT22;31489;51.404;5.474;2023-08-01T02:28:36;19.20;89.30
45785;DHT22;31489;51.404;5.474;2023-08-01T02:31:02;19.10;89.30
45785;DHT22;31489;51.404;5.474;2023-08-01T02:33:28;19.10;89.40
45785;DHT22;31489;51.404;5.474;2023-08-01T02:35:53;19.10;89.50
45785;DHT22;31489;51.404;5.474;2023-08-01T02:38:19;19.10;89.50
45785;DHT22;31489;51.404;5.474;2023-08-01T02:40:45;19.10;89.50
45785;DHT22;31489;51.404;5.474;2023-08-01T02:43:10;19.10;89.50
45785;DHT22;31489;51.404;5.474;2023-08-01T02:45:36;19.10;89.50
45785;DHT22;31489;51.404;5.474;2023-08-01T02:48:02;19.10;89.50
45785;DHT22;31489;51.404;5.474;2023-08-01T02:50:27;19.10;89.70
45785;DHT22;31489;51.404;5.474;2023-08-01T02:52:53;19.20;89.80
45785;DHT22;31489;51.404;5.474;2023-08-01T02:55:19;19.10;89.70
45785;DHT22;31489;51.404;5.474;2023-08-01T02:57:44;19.10;89.80
45785;DHT22;31489;51.404;5.474;2023-08-01T03:00:10;19.10;89.80
45785;DHT22;31489;51.404;5.474;2023-08-01T03:02:38;19.10;90.20
45785;DHT22;31489;51.404;5.474;2023-08-01T03:05:06;19.10;90.20
45785;DHT22;31489;51.404;5.474;2023-08-01T03:07:33;19.10;89.90
45785;DHT22;31489;51.404;5.474;2023-08-01T03:09:59;19.10;90.00
45785;DHT22;31489;51.404;5.474;2023-08-01T03:12:27;19.10;90.00
45785;DHT22;31489;51.404;5.474;2023-08-01T03:14:53;19.20;90.00
45785;DHT22;31489;51.404;5.474;2023-08-01T03:17:19;19.10;90.00
45785;DHT22;31489;51.404;5.474;2023-08-01T03:19:44;19.10;89.90
45785;DHT22;31489;51.404;5.474;2023-08-01T03:22:10;19.10;89.90
45785;DHT22;31489;51.404;5.474;2023-08-01T03:24:36;19.10;89.90
45785;DHT22;31489;51.404;5.474;2023-08-01T03:27:02;19.10;90.00
45785;DHT22;31489;51.404;5.474;2023-08-01T03:29:28;19.10;90.00
45785;DHT22;31489;51.404;5.474;2023-08-01T03:31:54;19.10;90.00
45785;DHT22;31489;51.404;5.474;2023-08-01T03:34:20;19.10;90.00
45785;DHT22;31489;51.404;5.474;2023-08-01T03:36:46;19.10;90.00
45785;DHT22;31489;51.404;5.474;2023-08-01T03:39:11;19.10;90.00
45785;DHT22;31489;51.404;5.474;2023-08-01T03:41:37;19.10;90.00
45785;DHT22;31489;51.404;5.474;2023-08-01T03:44:03;19.10;90.00
45785;DHT22;31489;51.404;5.474;2023-08-01T03:46:29;19.10;90.10
45785;DHT22;31489;51.404;5.474;2023-08-01T03:48:55;19.10;90.00
45785;DHT22;31489;51.404;5.474;2023-08-01T03:51:21;19.10;90.00
45785;DHT22;31489;51.404;5.474;2023-08-01T03:53:47;19.10;90.00
45785;DHT22;31489;51.404;5.474;2023-08-01T03:56:13;19.10;90.00
45785;DHT22;31489;51.404;5.474;2023-08-01T03:58:39;19.10;90.00
45785;DHT22;31489;51.404;5.474;2023-08-01T04:01:04;19.10;90.10
45785;DHT22;31489;51.404;5.474;2023-08-01T04:03:32;19.10;90.00
45785;DHT22;31489;51.404;5.474;2023-08-01T04:05:57;19.10;90.00
45785;DHT22;31489;51.404;5.474;2023-08-01T04:08:23;19.10;90.00
45785;DHT22;31489;51.404;5.474;2023-08-01T04:10:49;19.10;90.00
45785;DHT22;31489;51.404;5.474;2023-08-01T04:13:18;19.10;90.00
45785;DHT22;31489;51.404;5.474;2023-08-01T04:15:43;19.10;89.90
45785;DHT22;31489;51.404;5.474;2023-08-01T04:18:09;19.10;90.00
45785;DHT22;31489;51.404;5.474;2023-08-01T04:20:35;19.10;90.00
45785;DHT22;31489;51.404;5.474;2023-08-01T04:23:00;19.10;89.90
45785;DHT22;31489;51.404;5.474;2023-08-01T04:25:27;19.20;90.00
45785;DHT22;31489;51.404;5.474;2023-08-01T04:27:53;19.10;89.90
45785;DHT22;31489;51.404;5.474;2023-08-01T04:30:19;19.10;89.80
45785;DHT22;31489;51.404;5.474;2023-08-01T04:32:46;19.10;89.90
45785;DHT22;31489;51.404;5.474;2023-08-01T04:35:11;19.10;89.90
45785;DHT22;31489;51.404;5.474;2023-08-01T04:37:37;19.10;90.00
45785;DHT22;31489;51.404;5.474;2023-08-01T04:40:03;19.10;90.00
45785;DHT22;31489;51.404;5.474;2023-08-01T04:42:29;19.10;90.00
45785;DHT22;31489;51.404;5.474;2023-08-01T04:44:55;19.20;90.00
45785;DHT22;31489;51.404;5.474;2023-08-01T04:47:21;19.20;89.90
45785;DHT22;31489;51.404;5.474;2023-08-01T04:49:47;19.20;89.80
45785;DHT22;31489;51.404;5.474;2023-08-01T04:52:12;19.20;89.90
45785;DHT22;31489;51.404;5.474;2023-08-01T04:54:38;19.20;89.90
45785;DHT22;31489;51.404;5.474;2023-08-01T04:57:04;19.20;89.80
45785;DHT22;31489;51.404;5.474;2023-08-01T04:59:30;19.20;89.80
45785;DHT22;31489;51.404;5.474;2023-08-01T05:01:56;19.20;89.90
45785;DHT22;31489;51.404;5.474;2023-08-01T05:04:22;19.20;90.00
45785;DHT22;31489;51.404;5.474;2023-08-01T05:06:47;19.20;89.80
45785;DHT22;31489;51.404;5.474;2023-08-01T05:09:13;19.20;89.80
45785;DHT22;31489;51.404;5.474;2023-08-01T05:11:39;19.20;89.60
45785;DHT22;31489;51.404;5.474;2023-08-01T05:14:04;19.20;89.80
45785;DHT22;31489;51.404;5.474;2023-08-01T05:16:31;19.20;89.70
45785;DHT22;31489;51.404;5.474;2023-08-01T05:18:56;19.20;89.80
45785;DHT22;31489;51.404;5.474;2023-08-01T05:21:22;19.20;89.70
45785;DHT22;31489;51.404;5.474;2023-08-01T05:23:48;19.20;89.70
45785;DHT22;31489;51.404;5.474;2023-08-01T05:26:13;19.20;89.70
45785;DHT22;31489;51.404;5.474;2023-08-01T05:28:39;19.20;89.80
45785;DHT22;31489;51.404;5.474;2023-08-01T05:31:05;19.20;89.80
45785;DHT22;31489;51.404;5.474;2023-08-01T05:33:30;19.20;89.60
45785;DHT22;31489;51.404;5.474;2023-08-01T05:35:56;19.20;89.60
45785;DHT22;31489;51.404;5.474;2023-08-01T05:38:22;19.20;89.60
45785;DHT22;31489;51.404;5.474;2023-08-01T05:40:48;19.20;89.60
45785;DHT22;31489;51.404;5.474;2023-08-01T05:43:13;19.20;89.70
45785;DHT22;31489;51.404;5.474;2023-08-01T05:45:39;19.20;89.70
45785;DHT22;31489;51.404;5.474;2023-08-01T05:48:05;19.20;89.70
45785;DHT22;31489;51.404;5.474;2023-08-01T05:50:30;19.20;89.70
45785;DHT22;31489;51.404;5.474;2023-08-01T05:52:56;19.20;89.60
45785;DHT22;31489;51.404;5.474;2023-08-01T05:55:22;19.20;89.70
45785;DHT22;31489;51.404;5.474;2023-08-01T05:57:47;19.20;90.00
45785;DHT22;31489;51.404;5.474;2023-08-01T06:00:18;19.30;90.00
45785;DHT22;31489;51.404;5.474;2023-08-01T06:02:47;19.30;90.00
45785;DHT22;31489;51.404;5.474;2023-08-01T06:05:13;19.30;90.00
45785;DHT22;31489;51.404;5.474;2023-08-01T06:07:38;19.30;90.00
45785;DHT22;31489;51.404;5.474;2023-08-01T06:10:05;19.40;90.00
45785;DHT22;31489;51.404;5.474;2023-08-01T06:12:30;19.30;90.00
45785;DHT22;31489;51.404;5.474;2023-08-01T06:14:56;19.40;89.90
45785;DHT22;31489;51.404;5.474;2023-08-01T06:17:22;19.40;90.00
45785;DHT22;31489;51.404;5.474;2023-08-01T06:19:48;19.40;90.10
45785;DHT22;31489;51.404;5.474;2023-08-01T06:22:15;19.40;90.10
45785;DHT22;31489;51.404;5.474;2023-08-01T06:24:41;19.50;90.00
45785;DHT22;31489;51.404;5.474;2023-08-01T06:27:06;19.50;90.00
45785;DHT22;31489;51.404;5.474;2023-08-01T06:29:32;19.50;89.80
45785;DHT22;31489;51.404;5.474;2023-08-01T06:31:58;19.50;89.40
45785;DHT22;31489;51.404;5.474;2023-08-01T06:34:23;19.50;89.40
45785;DHT22;31489;51.404;5.474;2023-08-01T06:36:50;19.50;89.50
45785;DHT22;31489;51.404;5.474;2023-08-01T06:39:16;19.50;89.70
45785;DHT22;31489;51.404;5.474;2023-08-01T06:41:41;19.60;89.70
45785;DHT22;31489;51.404;5.474;2023-08-01T06:44:07;19.60;89.60
45785;DHT22;31489;51.404;5.474;2023-08-01T06:46:33;19.60;89.50
45785;DHT22;31489;51.404;5.474;2023-08-01T06:48:58;19.60;89.40
45785;DHT22;31489;51.404;5.474;2023-08-01T06:51:27;19.60;89.30
45785;DHT22;31489;51.404;5.474;2023-08-01T06:53:52;19.60;89.20
45785;DHT22;31489;51.404;5.474;2023-08-01T06:56:18;19.60;89.00
45785;DHT22;31489;51.404;5.474;2023-08-01T06:58:44;19.60;89.00
45785;DHT22;31489;51.404;5.474;2023-08-01T07:01:09;19.60;89.30
45785;DHT22;31489;51.404;5.474;2023-08-01T07:03:35;19.60;89.30
45785;DHT22;31489;51.404;5.474;2023-08-01T07:06:01;19.60;89.10
45785;DHT22;31489;51.404;5.474;2023-08-01T07:08:26;19.70;89.10
45785;DHT22;31489;51.404;5.474;2023-08-01T07:10:52;19.70;89.30
45785;DHT22;31489;51.404;5.474;2023-08-01T07:13:18;19.70;89.10
45785;DHT22;31489;51.404;5.474;2023-08-01T07:15:45;19.70;89.20
45785;DHT22;31489;51.404;5.474;2023-08-01T07:18:11;19.80;89.10
45785;DHT22;31489;51.404;5.474;2023-08-01T07:20:36;19.80;89.30
45785;DHT22;31489;51.404;5.474;2023-08-01T07:23:02;19.80;88.90
45785;DHT22;31489;51.404;5.474;2023-08-01T07:25:28;19.90;88.70
45785;DHT22;31489;51.404;5.474;2023-08-01T07:27:53;19.90;88.70
45785;DHT22;31489;51.404;5.474;2023-08-01T07:30:19;19.90;88.70
45785;DHT22;31489;51.404;5.474;2023-08-01T07:32:45;19.90;88.60
45785;DHT22;31489;51.404;5.474;2023-08-01T07:35:10;20.00;89.10
45785;DHT22;31489;51.404;5.474;2023-08-01T07:37:36;20.00;88.70
45785;DHT22;31489;51.404;5.474;2023-08-01T07:40:07;20.10;88.50
45785;DHT22;31489;51.404;5.474;2023-08-01T07:42:33;20.10;88.00
45785;DHT22;31489;51.404;5.474;2023-08-01T07:44:58;20.20;88.20
45785;DHT22;31489;51.404;5.474;2023-08-01T07:47:27;20.20;88.00
45785;DHT22;31489;51.404;5.474;2023-08-01T07:49:53;20.30;87.70
45785;DHT22;31489;51.404;5.474;2023-08-01T07:52:19;20.30;88.10
45785;DHT22;31489;51.404;5.474;2023-08-01T07:54:44;20.40;87.90
45785;DHT22;31489;51.404;5.474;2023-08-01T07:57:11;20.40;87.60
45785;DHT22;31489;51.404;5.474;2023-08-01T07:59:36;20.50;87.40
45785;DHT22;31489;51.404;5.474;2023-08-01T08:02:02;20.50;87.50
45785;DHT22;31489;51.404;5.474;2023-08-01T08:04:28;20.60;87.50
45785;DHT22;31489;51.404;5.474;2023-08-01T08:06:54;20.60;87.10
45785;DHT22;31489;51.404;5.474;2023-08-01T08:09:20;20.70;87.20
45785;DHT22;31489;51.404;5.474;2023-08-01T08:11:48;20.70;86.80
45785;DHT22;31489;51.404;5.474;2023-08-01T08:14:13;20.60;86.60
45785;DHT22;31489;51.404;5.474;2023-08-01T08:16:40;20.60;87.20
45785;DHT22;31489;51.404;5.474;2023-08-01T08:19:06;20.60;87.30
45785;DHT22;31489;51.404;5.474;2023-08-01T08:21:32;20.60;87.20
45785;DHT22;31489;51.404;5.474;2023-08-01T08:23:57;20.60;86.80
45785;DHT22;31489;51.404;5.474;2023-08-01T08:26:23;20.60;87.00
45785;DHT22;31489;51.404;5.474;2023-08-01T08:28:49;20.60;87.30
45785;DHT22;31489;51.404;5.474;2023-08-01T08:31:15;20.60;86.90
45785;DHT22;31489;51.404;5.474;2023-08-01T08:33:40;20.70;87.30
45785;DHT22;31489;51.404;5.474;2023-08-01T08:36:06;20.70;87.80
45785;DHT22;31489;51.404;5.474;2023-08-01T08:38:33;20.70;88.40
45785;DHT22;31489;51.404;5.474;2023-08-01T08:41:08;20.80;88.30
45785;DHT22;31489;51.404;5.474;2023-08-01T08:43:34;20.90;86.30
45785;DHT22;31489;51.404;5.474;2023-08-01T08:46:02;20.90;87.20
45785;DHT22;31489;51.404;5.474;2023-08-01T08:48:28;21.00;86.50
45785;DHT22;31489;51.404;5.474;2023-08-01T08:50:57;21.10;86.30
45785;DHT22;31489;51.404;5.474;2023-08-01T08:53:27;21.10;85.90
45785;DHT22;31489;51.404;5.474;2023-08-01T08:55:53;21.10;84.90
45785;DHT22;31489;51.404;5.474;2023-08-01T08:58:19;21.20;85.20
45785;DHT22;31489;51.404;5.474;2023-08-01T09:00:45;21.20;84.70
45785;DHT22;31489;51.404;5.474;2023-08-01T09:03:12;21.20;84.60
45785;DHT22;31489;51.404;5.474;2023-08-01T09:05:45;21.20;85.00
45785;DHT22;31489;51.404;5.474;2023-08-01T09:08:20;21.20;84.10
45785;DHT22;31489;51.404;5.474;2023-08-01T09:10:47;21.30;84.20
45785;DHT22;31489;51.404;5.474;2023-08-01T09:13:13;21.30;84.50
45785;DHT22;31489;51.404;5.474;2023-08-01T09:15:41;21.40;84.20
45785;DHT22;31489;51.404;5.474;2023-08-01T09:18:08;21.40;83.80
45785;DHT22;31489;51.404;5.474;2023-08-01T09:20:47;21.50;83.00
45785;DHT22;31489;51.404;5.474;2023-08-01T09:23:14;21.50;82.40
45785;DHT22;31489;51.404;5.474;2023-08-01T09:25:41;21.50;82.80
45785;DHT22;31489;51.404;5.474;2023-08-01T09:28:21;21.50;82.40
45785;DHT22;31489;51.404;5.474;2023-08-01T09:30:48;21.60;81.70
45785;DHT22;31489;51.404;5.474;2023-08-01T09:33:14;21.60;82.30
45785;DHT22;31489;51.404;5.474;2023-08-01T09:35:40;21.70;82.70
45785;DHT22;31489;51.404;5.474;2023-08-01T09:38:06;21.60;82.10
45785;DHT22;31489;51.404;5.474;2023-08-01T09:40:39;21.70;81.50
45785;DHT22;31489;51.404;5.474;2023-08-01T09:43:06;21.70;80.30
45785;DHT22;31489;51.404;5.474;2023-08-01T09:45:32;21.70;80.70
45785;DHT22;31489;51.404;5.474;2023-08-01T09:47:59;21.70;81.10
45785;DHT22;31489;51.404;5.474;2023-08-01T09:50:26;21.70;80.80
45785;DHT22;31489;51.404;5.474;2023-08-01T09:52:51;21.70;80.70
45785;DHT22;31489;51.404;5.474;2023-08-01T09:55:31;21.70;80.70
45785;DHT22;31489;51.404;5.474;2023-08-01T09:57:57;21.80;79.40
45785;DHT22;31489;51.404;5.474;2023-08-01T10:00:29;21.80;80.60
45785;DHT22;31489;51.404;5.474;2023-08-01T10:02:59;21.90;80.10
45785;DHT22;31489;51.404;5.474;2023-08-01T10:05:30;21.90;80.20
45785;DHT22;31489;51.404;5.474;2023-08-01T10:07:59;22.00;80.70
45785;DHT22;31489;51.404;5.474;2023-08-01T10:10:25;22.10;80.20
45785;DHT22;31489;51.404;5.474;2023-08-01T10:12:52;22.20;80.00
45785;DHT22;31489;51.404;5.474;2023-08-01T10:15:19;22.30;79.30
45785;DHT22;31489;51.404;5.474;2023-08-01T10:17:45;22.30;79.40
45785;DHT22;31489;51.404;5.474;2023-08-01T10:20:11;22.40;79.00
45785;DHT22;31489;51.404;5.474;2023-08-01T10:22:39;22.40;78.30
45785;DHT22;31489;51.404;5.474;2023-08-01T10:25:05;22.40;78.40
45785;DHT22;31489;51.404;5.474;2023-08-01T10:27:32;22.50;77.90
45785;DHT22;31489;51.404;5.474;2023-08-01T10:30:03;22.40;78.30
45785;DHT22;31489;51.404;5.474;2023-08-01T10:32:37;22.40;78.30
45785;DHT22;31489;51.404;5.474;2023-08-01T10:35:03;22.40;77.80
45785;DHT22;31489;51.404;5.474;2023-08-01T10:37:45;22.40;78.70
45785;DHT22;31489;51.404;5.474;2023-08-01T10:40:14;22.40;77.30
45785;DHT22;31489;51.404;5.474;2023-08-01T10:42:41;22.50;78.50
45785;DHT22;31489;51.404;5.474;2023-08-01T10:45:19;22.50;78.50
45785;DHT22;31489;51.404;5.474;2023-08-01T10:47:45;22.60;78.30
45785;DHT22;31489;51.404;5.474;2023-08-01T10:50:15;22.70;78.70
45785;DHT22;31489;51.404;5.474;2023-08-01T10:52:41;22.90;79.40
45785;DHT22;31489;51.404;5.474;2023-08-01T10:55:07;23.10;80.20
45785;DHT22;31489;51.404;5.474;2023-08-01T10:57:35;23.30;80.00
45785;DHT22;31489;51.404;5.474;2023-08-01T11:00:02;23.70;78.70
45785;DHT22;31489;51.404;5.474;2023-08-01T11:02:35;24.00;77.00
45785;DHT22;31489;51.404;5.474;2023-08-01T11:05:05;24.20;74.70
45785;DHT22;31489;51.404;5.474;2023-08-01T11:07:32;24.40;71.90
45785;DHT22;31489;51.404;5.474;2023-08-01T11:10:04;24.40;72.90
45785;DHT22;31489;51.404;5.474;2023-08-01T11:12:33;24.40;71.00
45785;DHT22;31489;51.404;5.474;2023-08-01T11:15:00;24.40;72.40
45785;DHT22;31489;51.404;5.474;2023-08-01T11:17:26;24.30;71.10
45785;DHT22;31489;51.404;5.474;2023-08-01T11:19:51;24.30;71.30
45785;DHT22;31489;51.404;5.474;2023-08-01T11:22:17;24.30;72.50
45785;DHT22;31489;51.404;5.474;2023-08-01T11:24:50;24.30;72.60
45785;DHT22;31489;51.404;5.474;2023-08-01T11:27:16;24.40;71.10
45785;DHT22;31489;51.404;5.474;2023-08-01T11:29:41;24.60;73.00
45785;DHT22;31489;51.404;5.474;2023-08-01T11:32:07;24.90;73.20
45785;DHT22;31489;51.404;5.474;2023-08-01T11:34:40;25.20;73.00
45785;DHT22;31489;51.404;5.474;2023-08-01T11:37:18;25.50;69.60
45785;DHT22;31489;51.404;5.474;2023-08-01T11:39:45;25.70;68.40
45785;DHT22;31489;51.404;5.474;2023-08-01T11:42:15;26.00;69.20
45785;DHT22;31489;51.404;5.474;2023-08-01T11:44:41;26.10;66.90
45785;DHT22;31489;51.404;5.474;2023-08-01T11:47:17;26.20;67.10
45785;DHT22;31489;51.404;5.474;2023-08-01T11:49:52;26.20;62.70
45785;DHT22;31489;51.404;5.474;2023-08-01T11:52:22;26.20;61.70
45785;DHT22;31489;51.404;5.474;2023-08-01T11:54:48;26.10;65.70
45785;DHT22;31489;51.404;5.474;2023-08-01T11:57:14;25.90;65.10
45785;DHT22;31489;51.404;5.474;2023-08-01T11:59:48;25.80;64.50
45785;DHT22;31489;51.404;5.474;2023-08-01T12:02:25;25.70;63.30
45785;DHT22;31489;51.404;5.474;2023-08-01T12:04:52;25.60;63.00
45785;DHT22;31489;51.404;5.474;2023-08-01T12:07:18;25.60;65.10
45785;DHT22;31489;51.404;5.474;2023-08-01T12:10:00;25.60;64.80
45785;DHT22;31489;51.404;5.474;2023-08-01T12:12:27;25.60;62.70
45785;DHT22;31489;51.404;5.474;2023-08-01T12:14:53;25.60;65.10
45785;DHT22;31489;51.404;5.474;2023-08-01T12:17:20;25.70;65.80
45785;DHT22;31489;51.404;5.474;2023-08-01T12:19:45;25.80;65.30
45785;DHT22;31489;51.404;5.474;2023-08-01T12:22:12;25.80;63.90
45785;DHT22;31489;51.404;5.474;2023-08-01T12:24:38;25.90;64.00
45785;DHT22;31489;51.404;5.474;2023-08-01T12:27:12;25.90;62.80
45785;DHT22;31489;51.404;5.474;2023-08-01T12:29:38;26.00;60.60
45785;DHT22;31489;51.404;5.474;2023-08-01T12:32:04;26.00;63.20
45785;DHT22;31489;51.404;5.474;2023-08-01T12:34:32;26.00;62.90
45785;DHT22;31489;51.404;5.474;2023-08-01T12:36:58;26.10;62.30
45785;DHT22;31489;51.404;5.474;2023-08-01T12:39:23;26.20;62.80
45785;DHT22;31489;51.404;5.474;2023-08-01T12:41:51;26.20;62.80
45785;DHT22;31489;51.404;5.474;2023-08-01T12:44:18;26.30;63.40
45785;DHT22;31489;51.404;5.474;2023-08-01T12:46:44;26.30;63.60
45785;DHT22;31489;51.404;5.474;2023-08-01T12:49:09;26.40;64.20
45785;DHT22;31489;51.404;5.474;2023-08-01T12:51:35;26.50;64.10
45785;DHT22;31489;51.404;5.474;2023-08-01T12:54:01;26.60;63.20
45785;DHT22;31489;51.404;5.474;2023-08-01T12:56:26;26.60;62.10
45785;DHT22;31489;51.404;5.474;2023-08-01T12:58:52;26.50;61.50
45785;DHT22;31489;51.404;5.474;2023-08-01T13:01:17;26.50;60.20
45785;DHT22;31489;51.404;5.474;2023-08-01T13:03:43;26.40;60.00
45785;DHT22;31489;51.404;5.474;2023-08-01T13:06:12;26.30;60.70
45785;DHT22;31489;51.404;5.474;2023-08-01T13:08:40;26.30;60.40
45785;DHT22;31489;51.404;5.474;2023-08-01T13:11:10;26.20;60.60
45785;DHT22;31489;51.404;5.474;2023-08-01T13:13:37;26.20;58.80
45785;DHT22;31489;51.404;5.474;2023-08-01T13:16:03;26.10;60.00
45785;DHT22;31489;51.404;5.474;2023-08-01T13:18:28;26.00;60.50
45785;DHT22;31489;51.404;5.474;2023-08-01T13:20:56;26.00;60.50
45785;DHT22;31489;51.404;5.474;2023-08-01T13:23:25;25.90;59.80
45785;DHT22;31489;51.404;5.474;2023-08-01T13:25:51;25.90;60.10
45785;DHT22;31489;51.404;5.474;2023-08-01T13:28:17;26.00;61.50
45785;DHT22;31489;51.404;5.474;2023-08-01T13:30:43;26.10;61.80
45785;DHT22;31489;51.404;5.474;2023-08-01T13:33:09;26.10;61.50
45785;DHT22;31489;51.404;5.474;2023-08-01T13:35:34;26.20;61.00
45785;DHT22;31489;51.404;5.474;2023-08-01T13:38:00;26.20;60.80
45785;DHT22;31489;51.404;5.474;2023-08-01T13:40:26;26.30;60.30
45785;DHT22;31489;51.404;5.474;2023-08-01T13:42:54;26.40;60.10
45785;DHT22;31489;51.404;5.474;2023-08-01T13:45:20;26.40;60.20
45785;DHT22;31489;51.404;5.474;2023-08-01T13:47:46;26.50;60.40
45785;DHT22;31489;51.404;5.474;2023-08-01T13:50:11;26.60;60.20
45785;DHT22;31489;51.404;5.474;2023-08-01T13:52:43;26.70;59.30
45785;DHT22;31489;51.404;5.474;2023-08-01T13:55:12;26.80;58.70
45785;DHT22;31489;51.404;5.474;2023-08-01T13:57:42;27.00;57.30
45785;DHT22;31489;51.404;5.474;2023-08-01T14:00:08;27.10;58.50
45785;DHT22;31489;51.404;5.474;2023-08-01T14:02:37;27.20;58.40
45785;DHT22;31489;51.404;5.474;2023-08-01T14:05:03;27.30;57.50
45785;DHT22;31489;51.404;5.474;2023-08-01T14:07:29;27.50;57.70
45785;DHT22;31489;51.404;5.474;2023-08-01T14:09:55;27.60;57.60
45785;DHT22;31489;51.404;5.474;2023-08-01T14:12:20;27.60;56.00
45785;DHT22;31489;51.404;5.474;2023-08-01T14:14:47;27.70;56.90
45785;DHT22;31489;51.404;5.474;2023-08-01T14:17:13;27.60;55.30
45785;DHT22;31489;51.404;5.474;2023-08-01T14:19:39;27.60;54.10
45785;DHT22;31489;51.404;5.474;2023-08-01T14:22:04;27.50;54.30
45785;DHT22;31489;51.404;5.474;2023-08-01T14:24:30;27.40;54.60
45785;DHT22;31489;51.404;5.474;2023-08-01T14:26:56;27.40;55.00
45785;DHT22;31489;51.404;5.474;2023-08-01T14:29:21;27.30;55.10
45785;DHT22;31489;51.404;5.474;2023-08-01T14:31:48;27.30;55.20
45785;DHT22;31489;51.404;5.474;2023-08-01T14:34:15;27.30;55.00
45785;DHT22;31489;51.404;5.474;2023-08-01T14:36:41;27.30;55.60
45785;DHT22;31489;51.404;5.474;2023-08-01T14:39:07;27.30;53.80
45785;DHT22;31489;51.404;5.474;2023-08-01T14:41:35;27.30;54.90
45785;DHT22;31489;51.404;5.474;2023-08-01T14:44:01;27.20;55.10
45785;DHT22;31489;51.404;5.474;2023-08-01T14:46:26;27.20;55.80
45785;DHT22;31489;51.404;5.474;2023-08-01T14:48:52;27.10;56.00
45785;DHT22;31489;51.404;5.474;2023-08-01T14:51:18;27.20;55.60
45785;DHT22;31489;51.404;5.474;2023-08-01T14:53:44;27.20;55.00
45785;DHT22;31489;51.404;5.474;2023-08-01T14:56:10;27.20;52.80
45785;DHT22;31489;51.404;5.474;2023-08-01T14:58:36;27.10;53.40
45785;DHT22;31489;51.404;5.474;2023-08-01T15:01:05;27.10;54.20
45785;DHT22;31489;51.404;5.474;2023-08-01T15:03:31;27.10;53.10
45785;DHT22;31489;51.404;5.474;2023-08-01T15:06:04;27.10;52.30
45785;DHT22;31489;51.404;5.474;2023-08-01T15:08:30;27.10;53.70
45785;DHT22;31489;51.404;5.474;2023-08-01T15:10:55;27.10;53.40
45785;DHT22;31489;51.404;5.474;2023-08-01T15:13:23;27.10;54.00
45785;DHT22;31489;51.404;5.474;2023-08-01T15:15:49;27.10;53.80
45785;DHT22;31489;51.404;5.474;2023-08-01T15:18:17;27.10;52.60
45785;DHT22;31489;51.404;5.474;2023-08-01T15:20:43;27.00;52.30
45785;DHT22;31489;51.404;5.474;2023-08-01T15:23:08;27.00;53.50
45785;DHT22;31489;51.404;5.474;2023-08-01T15:25:34;27.00;51.40
45785;DHT22;31489;51.404;5.474;2023-08-01T15:28:00;26.90;51.30